Time;durP1;ratioP1;P1;durP2;ratioP2;P2;SDS_P1;SDS_P2;PMS_P1;PMS_P2;Temp;Humidity;BMP_temperature;BMP_pressure;BME280_temperature;BME280_humidity;BME280_pressure;Samples;Min_cycle;Max_cycle;Signal;HPM_P1;HPM_P2
2022/11/28 00:02:05;;;;;;;;;8.33;7.67;;;;;10.70;74.55;100682.28;5052588;28;44966;-61
2022/11/28 00:04:30;;;;;;;;;7.25;6.00;;;;;10.74;75.22;100676.16;5046735;28;45456;-61
2022/11/28 00:06:56;;;;;;;;;4.67;4.67;;;;;10.77;74.69;100665.53;5073869;28;44961;-61
2022/11/28 00:09:21;;;;;;;;;6.00;4.33;;;;;10.67;74.73;100628.75;5075252;28;46126;-61
2022/11/28 00:11:47;;;;;;;;;7.25;6.00;;;;;10.87;74.78;100662.22;5056528;28;45168;-62
2022/11/28 00:14:14;;;;;;;;;6.33;5.00;;;;;10.87;74.87;100655.94;5076285;28;45847;-61
2022/11/28 00:16:39;;;;;;;;;6.50;6.25;;;;;10.87;74.87;100648.84;5076113;28;45600;-61
2022/11/28 00:19:05;;;;;;;;;6.33;6.33;;;;;10.91;74.71;100646.25;5073761;28;44972;-61
2022/11/28 00:21:31;;;;;;;;;7.00;7.00;;;;;10.93;74.58;100633.84;5075574;28;45054;-61
2022/11/28 00:23:57;;;;;;;;;6.75;6.75;;;;;10.94;74.98;100646.31;5075072;28;45045;-60
2022/11/28 00:26:26;;;;;;;;;5.75;5.75;;;;;10.90;74.65;100636.44;5074742;28;45139;-62
2022/11/28 00:28:52;;;;;;;;;7.00;4.33;;;;;10.91;74.90;100641.81;5074605;28;45134;-61
2022/11/28 00:31:26;;;;;;;;;6.00;4.33;;;;;10.97;74.79;100641.03;5065071;28;45027;-62
2022/11/28 00:33:52;;;;;;;;;6.50;6.50;;;;;10.90;74.59;100615.03;5079406;28;45130;-63
2022/11/28 00:36:19;;;;;;;;;7.00;6.00;;;;;10.97;74.45;100633.00;5074405;28;44933;-61
2022/11/28 00:38:45;;;;;;;;;7.33;6.00;;;;;10.99;74.44;100631.31;5074587;28;46635;-64
2022/11/28 00:41:13;;;;;;;;;5.00;5.00;;;;;10.98;74.49;100637.50;5055809;28;45074;-62
2022/11/28 00:43:40;;;;;;;;;6.00;4.00;;;;;10.97;75.00;100636.63;5073832;28;45028;-61
2022/11/28 00:46:05;;;;;;;;;5.33;5.00;;;;;11.02;74.10;100628.66;5074448;28;45083;-61
2022/11/28 00:48:32;;;;;;;;;6.33;4.00;;;;;11.01;74.71;100630.44;5075626;28;45710;-63
2022/11/28 00:51:12;;;;;;;;;5.00;5.00;;;;;10.85;74.54;100598.91;5076217;28;45102;-61
2022/11/28 00:53:40;;;;;;;;;6.50;5.00;;;;;10.99;74.70;100628.63;5063711;28;45586;-61
2022/11/28 00:56:09;;;;;;;;;7.00;5.33;;;;;10.99;75.10;100628.63;5074903;28;45770;-62
2022/11/28 00:58:35;;;;;;;;;5.67;5.67;;;;;11.00;74.38;100630.41;5074808;28;45957;-61
2022/11/28 01:01:16;;;;;;;;;5.00;5.00;;;;;10.91;74.75;100608.84;5073950;28;45110;-61
2022/11/28 01:03:42;;;;;;;;;4.00;4.00;;;;;10.96;74.75;100623.22;5055703;28;45092;-62
2022/11/28 01:06:08;;;;;;;;;5.33;5.00;;;;;11.00;74.87;100625.06;5074738;28;45112;-61
2022/11/28 01:08:34;;;;;;;;;5.00;5.00;;;;;11.02;73.93;100626.94;5074903;28;45292;-62
2022/11/28 01:11:00;;;;;;;;;7.00;6.00;;;;;10.93;74.69;100607.09;5072750;28;45215;-60
2022/11/28 01:13:25;;;;;;;;;5.00;5.00;;;;;11.02;74.55;100626.00;5074621;28;44975;-61
2022/11/28 01:15:51;;;;;;;;;5.00;5.00;;;;;10.94;74.83;100609.81;5074759;28;45316;-60
2022/11/28 01:18:16;;;;;;;;;6.00;4.33;;;;;11.00;74.71;100617.06;5056243;28;46820;-60
2022/11/28 01:20:42;;;;;;;;;5.00;5.00;;;;;10.92;75.18;100602.59;5074032;28;45135;-60
2022/11/28 01:23:08;;;;;;;;;9.33;6.33;;;;;11.05;74.74;100624.31;5073337;28;45033;-61
2022/11/28 01:25:33;;;;;;;;;8.67;6.67;;;;;11.05;74.37;100623.41;5074601;28;45188;-60
2022/11/28 01:27:59;;;;;;;;;8.33;6.33;;;;;11.12;74.79;100622.69;5073371;28;45354;-60
2022/11/28 01:30:24;;;;;;;;;5.00;5.00;;;;;11.12;74.36;100627.09;5074224;28;44847;-61
2022/11/28 01:32:50;;;;;;;;;12.67;9.00;;;;;11.16;74.32;100640.59;5074432;28;45023;-61
2022/11/28 01:35:15;;;;;;;;;6.00;6.00;;;;;11.14;74.15;100625.41;5074391;28;45335;-61
2022/11/28 01:37:40;;;;;;;;;11.33;6.00;;;;;11.16;74.09;100637.03;5073594;28;45404;-60
2022/11/28 01:40:06;;;;;;;;;9.67;6.67;;;;;11.15;74.34;100636.13;5073735;28;44933;-60
2022/11/28 01:42:32;;;;;;;;;8.67;5.67;;;;;11.13;74.67;100629.81;5071837;28;45289;-61
2022/11/28 01:45:05;;;;;;;;;5.00;5.00;;;;;11.17;74.57;100641.47;5073916;28;45044;-59
2022/11/28 01:47:32;;;;;;;;;8.67;5.00;;;;;11.09;74.23;100633.31;5055042;28;46853;-59
2022/11/28 01:49:59;;;;;;;;;6.33;6.00;;;;;11.20;75.01;100652.25;5073261;28;45173;-60
2022/11/28 01:52:25;;;;;;;;;7.00;5.33;;;;;11.16;74.67;100645.03;5074159;28;45150;-62
2022/11/28 01:54:56;;;;;;;;;8.00;6.00;;;;;11.22;74.56;100656.78;5073653;28;45196;-61
2022/11/28 01:57:24;;;;;;;;;7.00;6.00;;;;;11.22;74.74;100648.75;5073377;28;46619;-62
2022/11/28 01:59:55;;;;;;;;;8.67;6.00;;;;;11.00;74.44;100617.94;5053521;28;45221;-61
2022/11/28 02:02:40;;;;;;;;;6.00;6.00;;;;;11.23;74.72;100655.88;5056643;28;44874;-61
2022/11/28 02:05:06;;;;;;;;;8.00;5.00;;;;;11.22;74.97;100651.44;5070787;28;45087;-61
2022/11/28 02:07:33;;;;;;;;;5.00;5.00;;;;;11.27;74.72;100654.22;5073014;28;46145;-61
2022/11/28 02:09:59;;;;;;;;;7.67;7.67;;;;;11.30;74.62;100666.72;5073305;28;45663;-61
2022/11/28 02:12:44;;;;;;;;;8.00;6.67;;;;;11.30;74.01;100667.66;5073600;28;45137;-60
2022/11/28 02:15:09;;;;;;;;;5.00;5.00;;;;;11.33;74.91;100658.78;5072795;28;44974;-61
2022/11/28 02:17:42;;;;;;;;;7.33;6.33;;;;;11.29;74.67;100649.78;5072442;28;46644;-60
2022/11/28 02:20:49;;;;;;;;;8.67;7.33;;;;;11.38;74.21;100651.75;5054905;28;44954;-60
2022/11/28 02:23:42;;;;;;;;;8.33;5.67;;;;;11.39;74.55;100645.53;5072051;28;45017;-60
2022/11/28 02:26:32;;;;;;;;;6.67;6.00;;;;;11.44;74.76;100644.75;5072980;28;45134;-60
2022/11/28 02:29:27;;;;;;;;;11.33;7.33;;;;;11.46;73.99;100643.91;5071711;27;45378;-61
2022/11/28 02:32:21;;;;;;;;;5.00;5.00;;;;;11.45;74.82;100629.63;5071897;28;44957;-60
2022/11/28 02:35:01;;;;;;;;;7.00;7.00;;;;;11.44;74.03;100636.72;5062256;28;45166;-61
2022/11/28 02:37:40;;;;;;;;;7.00;7.00;;;;;11.44;74.55;100638.50;5072646;28;45181;-62
2022/11/28 02:40:10;;;;;;;;;8.00;7.00;;;;;11.43;74.89;100636.69;5071383;28;46838;-61
2022/11/28 02:42:46;;;;;;;;;9.00;6.33;;;;;11.44;74.53;100631.38;5071638;28;44839;-62
2022/11/28 02:45:30;;;;;;;;;8.67;8.33;;;;;11.34;74.99;100621.38;5073043;28;45983;-61
2022/11/28 02:48:05;;;;;;;;;10.33;9.33;;;;;11.47;74.84;100637.69;5071319;28;45114;-61
2022/11/28 02:50:41;;;;;;;;;14.67;9.00;;;;;11.45;74.26;100632.31;5071170;28;45655;-60
2022/11/28 02:53:13;;;;;;;;;15.67;9.67;;;;;11.32;74.85;100599.03;5071071;28;45215;-60
2022/11/28 02:55:40;;;;;;;;;12.00;7.33;;;;;11.48;74.18;100616.28;5070547;28;44944;-60
2022/11/28 02:58:05;;;;;;;;;10.00;8.00;;;;;11.46;74.74;100599.31;5070373;28;45072;-62
2022/11/28 03:00:33;;;;;;;;;9.67;6.00;;;;;11.41;74.52;100585.84;5070783;28;45006;-60
2022/11/28 03:02:59;;;;;;;;;8.33;7.67;;;;;11.55;74.61;100601.25;5071054;28;44866;-60
2022/11/28 03:05:37;;;;;;;;;6.33;6.33;;;;;11.55;75.26;100591.47;5070981;28;45242;-60
2022/11/28 03:08:28;;;;;;;;;8.67;6.00;;;;;11.45;74.41;100576.13;5072774;28;45015;-62
2022/11/28 03:11:07;;;;;;;;;8.33;8.00;;;;;11.58;74.47;100596.91;5071768;28;45726;-60
2022/11/28 03:13:54;;;;;;;;;6.00;6.00;;;;;11.61;75.02;100583.59;5054448;28;45115;-60
2022/11/28 03:16:29;;;;;;;;;8.33;6.67;;;;;11.61;73.95;100579.97;5068755;28;45045;-61
2022/11/28 03:19:15;;;;;;;;;10.67;8.33;;;;;11.65;74.16;100589.88;5070764;28;45155;-60
2022/11/28 03:21:49;;;;;;;;;5.67;5.00;;;;;11.64;74.52;100598.78;5071229;28;45835;-60
2022/11/28 03:24:28;;;;;;;;;9.33;8.00;;;;;11.64;73.66;100595.22;5070162;28;45183;-62
2022/11/28 03:27:05;;;;;;;;;7.00;7.00;;;;;11.62;73.49;100597.84;5072127;28;44960;-61
2022/11/28 03:29:38;;;;;;;;;11.67;8.00;;;;;11.61;74.35;100593.38;5072687;28;45120;-60
2022/11/28 03:32:08;;;;;;;;;9.25;9.25;;;;;11.59;74.08;100595.13;5053564;28;46735;-61
2022/11/28 03:34:39;;;;;;;;;8.00;8.00;;;;;11.63;73.53;100602.31;5053535;28;45251;-60
2022/11/28 03:37:12;;;;;;;;;8.50;7.25;;;;;11.62;73.87;100600.53;5072391;28;45186;-60
2022/11/28 03:39:40;;;;;;;;;8.33;7.67;;;;;11.65;73.78;100616.66;5070805;28;44980;-60
2022/11/28 03:42:13;;;;;;;;;7.00;7.00;;;;;11.56;73.95;100601.28;5070664;28;45079;-61
2022/11/28 03:44:55;;;;;;;;;10.00;8.00;;;;;11.64;74.55;100603.25;5071311;28;44985;-61
2022/11/28 03:47:25;;;;;;;;;10.67;8.33;;;;;11.52;73.84;100588.75;5071532;28;45136;-61
2022/11/28 03:49:53;;;;;;;;;12.00;8.50;;;;;11.64;73.68;100604.13;5072415;28;45150;-60
2022/11/28 03:52:30;;;;;;;;;8.00;8.00;;;;;11.20;74.22;100526.56;5070713;28;45383;-60
2022/11/28 03:55:02;;;;;;;;;9.50;8.25;;;;;11.69;74.19;100599.78;5053420;28;45044;-60
2022/11/28 03:57:43;;;;;;;;;9.50;7.00;;;;;11.69;74.49;100588.16;5051160;28;45250;-60
2022/11/28 04:00:11;;;;;;;;;14.50;11.00;;;;;11.71;73.68;100594.44;5070345;28;45228;-61
2022/11/28 04:03:07;;;;;;;;;10.00;9.00;;;;;11.70;73.54;100600.69;5070142;28;45796;-64
2022/11/28 04:05:51;;;;;;;;;11.00;7.67;;;;;11.69;74.30;100590.84;5071082;28;44950;-61
2022/11/28 04:08:21;;;;;;;;;11.33;8.00;;;;;11.65;73.76;100584.53;5048720;28;45374;-61
2022/11/28 04:11:22;;;;;;;;;8.33;7.00;;;;;11.62;73.41;100581.81;5069866;28;45087;-60
2022/11/28 04:14:02;;;;;;;;;11.67;8.67;;;;;11.60;73.74;100588.91;5035861;28;46926;-61
2022/11/28 04:16:40;;;;;;;;;13.00;8.67;;;;;11.56;73.36;100593.25;5083921;28;45118;-61
2022/11/28 04:19:13;;;;;;;;;13.67;13.67;;;;;11.33;74.68;100570.50;5039126;28;44986;-61
2022/11/28 04:21:48;;;;;;;;;8.33;8.33;;;;;11.56;73.87;100601.28;5071700;28;44945;-60
2022/11/28 04:24:25;;;;;;;;;12.33;8.33;;;;;11.56;74.41;100598.63;5057322;28;45219;-59
2022/11/28 04:27:05;;;;;;;;;7.00;7.00;;;;;11.51;73.99;100583.34;5053024;28;45027;-61
2022/11/28 04:29:36;;;;;;;;;12.25;10.50;;;;;11.56;74.82;100590.59;5071234;28;45010;-61
2022/11/28 04:32:04;;;;;;;;;9.00;7.67;;;;;11.56;74.78;100598.63;5070399;28;45027;-60
2022/11/28 04:34:32;;;;;;;;;11.67;8.00;;;;;11.54;74.66;100615.53;5071081;28;45908;-60
2022/11/28 04:37:00;;;;;;;;;11.25;9.00;;;;;11.51;74.75;100592.28;5071492;28;45038;-61
2022/11/28 04:39:29;;;;;;;;;10.25;7.50;;;;;11.55;74.22;100598.59;5052582;28;45093;-61
2022/11/28 04:41:59;;;;;;;;;7.67;7.67;;;;;11.48;74.56;100583.28;5071407;28;44922;-61
2022/11/28 04:44:28;;;;;;;;;10.00;9.25;;;;;11.61;74.82;100607.66;5070507;28;45848;-62
2022/11/28 04:46:56;;;;;;;;;16.00;11.50;;;;;11.50;74.01;100590.50;5052652;28;45152;-60
2022/11/28 04:49:25;;;;;;;;;10.00;8.67;;;;;11.50;74.83;100598.53;5070768;28;45329;-61
2022/11/28 04:52:22;;;;;;;;;13.00;10.00;;;;;11.58;74.78;100622.72;5071015;28;45119;-61
2022/11/28 04:54:52;;;;;;;;;9.75;8.50;;;;;11.58;74.76;100630.75;5073074;28;45600;-61
2022/11/28 04:57:25;;;;;;;;;9.50;8.25;;;;;11.58;74.84;100631.69;5073810;28;45105;-61
2022/11/28 04:59:52;;;;;;;;;12.50;10.50;;;;;11.60;74.83;100637.06;5073632;28;45176;-63
2022/11/28 05:02:20;;;;;;;;;8.00;7.00;;;;;11.52;74.79;100612.81;5074448;28;45266;-61
2022/11/28 05:04:46;;;;;;;;;7.33;6.00;;;;;11.61;74.92;100602.31;5073946;28;45783;-60
2022/11/28 05:07:11;;;;;;;;;9.00;9.00;;;;;11.59;75.08;100576.38;5055420;28;45186;-60
2022/11/28 05:09:37;;;;;;;;;12.00;9.00;;;;;11.64;74.45;100579.16;5074310;28;45056;-61
2022/11/28 05:12:03;;;;;;;;;17.00;10.00;;;;;11.74;74.54;100586.47;5072014;28;45085;-61
2022/11/28 05:14:28;;;;;;;;;14.00;9.00;;;;;11.70;74.28;100576.59;5064491;28;45459;-60
2022/11/28 05:16:54;;;;;;;;;9.67;8.33;;;;;11.76;74.12;100603.47;5073254;28;45029;-61
2022/11/28 05:19:19;;;;;;;;;10.00;8.25;;;;;11.59;74.78;100579.94;5074204;28;45136;-61
2022/11/28 05:21:44;;;;;;;;;15.00;8.50;;;;;11.68;74.59;100594.38;5054816;28;45208;-60
2022/11/28 05:24:10;;;;;;;;;13.25;11.25;;;;;11.66;74.73;100604.16;5072540;28;46030;-61
2022/11/28 05:26:36;;;;;;;;;13.00;11.00;;;;;11.65;74.61;100608.63;5054553;28;45012;-60
2022/11/28 05:29:03;;;;;;;;;14.50;11.75;;;;;11.63;74.80;100607.66;5054643;28;45326;-60
2022/11/28 05:31:28;;;;;;;;;13.75;9.75;;;;;11.50;74.77;100576.19;5053589;28;46021;-61
2022/11/28 05:33:54;;;;;;;;;10.50;10.50;;;;;11.67;74.45;100593.50;5071445;28;46109;-61
2022/11/28 05:36:20;;;;;;;;;13.67;13.67;;;;;11.68;75.34;100581.00;5054439;28;45404;-61
2022/11/28 05:38:46;;;;;;;;;16.00;10.00;;;;;11.59;74.91;100554.97;5071086;28;45183;-59
2022/11/28 05:41:21;;;;;;;;;11.25;11.25;;;;;11.66;74.45;100583.66;5073800;28;45174;-60
2022/11/28 05:43:46;;;;;;;;;8.67;8.67;;;;;11.48;74.58;100562.78;5073594;28;46180;-62
2022/11/28 05:46:12;;;;;;;;;18.00;9.75;;;;;11.67;74.68;100596.16;5073403;28;45115;-61
2022/11/28 05:48:37;;;;;;;;;8.33;8.33;;;;;11.65;74.92;100581.88;5073969;28;45338;-61
2022/11/28 05:51:04;;;;;;;;;13.75;11.25;;;;;11.71;74.63;100600.69;5073632;28;45103;-61
2022/11/28 05:53:29;;;;;;;;;10.67;8.67;;;;;11.71;74.79;100589.97;5071464;28;45735;-61
2022/11/28 05:55:54;;;;;;;;;11.33;9.00;;;;;11.72;75.15;100591.81;5073019;28;45058;-59
2022/11/28 05:58:20;;;;;;;;;10.50;9.00;;;;;11.67;74.80;100585.47;5072909;28;44938;-61
2022/11/28 06:00:45;;;;;;;;;15.33;10.00;;;;;11.66;74.21;100591.69;5073365;28;45105;-60
2022/11/28 06:03:11;;;;;;;;;12.67;10.33;;;;;11.67;74.48;100597.94;5072971;28;45305;-61
2022/11/28 06:05:39;;;;;;;;;12.67;9.67;;;;;11.71;74.58;100606.03;5071456;28;45105;-62
2022/11/28 06:08:05;;;;;;;;;7.00;7.00;;;;;11.69;75.10;100596.19;5070492;28;45179;-61
2022/11/28 06:10:30;;;;;;;;;12.00;10.00;;;;;11.68;74.22;100599.72;5072612;28;45020;-61
2022/11/28 06:12:55;;;;;;;;;14.50;11.25;;;;;11.72;74.49;100613.22;5048896;28;49790;-62
2022/11/28 06:15:21;;;;;;;;;15.00;13.33;;;;;11.74;74.16;100614.13;5072574;28;44945;-61
2022/11/28 06:17:46;;;;;;;;;10.00;9.00;;;;;11.75;74.74;100610.59;5071153;28;44938;-61
2022/11/28 06:20:11;;;;;;;;;15.00;8.00;;;;;11.77;74.86;100621.34;5070664;28;45167;-61
2022/11/28 06:22:37;;;;;;;;;9.00;9.00;;;;;11.78;75.16;100628.50;5072875;28;45645;-60
2022/11/28 06:25:02;;;;;;;;;10.67;9.67;;;;;11.72;74.69;100612.31;5066555;28;45226;-61
2022/11/28 06:27:28;;;;;;;;;11.67;9.00;;;;;11.77;74.32;100622.22;5073445;28;45058;-63
2022/11/28 06:29:53;;;;;;;;;12.00;10.00;;;;;11.72;74.31;100601.63;5071552;28;44857;-60
2022/11/28 06:32:18;;;;;;;;;14.33;8.33;;;;;11.67;74.70;100596.16;5068758;28;48120;-61
2022/11/28 06:34:44;;;;;;;;;14.67;10.67;;;;;11.85;74.06;100635.78;5072152;28;44844;-61
2022/11/28 06:37:09;;;;;;;;;17.67;10.33;;;;;11.85;74.64;100638.44;5072926;28;44898;-61
2022/11/28 06:39:35;;;;;;;;;14.67;9.00;;;;;11.74;73.97;100615.91;5068429;28;45100;-61
2022/11/28 06:42:01;;;;;;;;;13.00;9.33;;;;;11.83;74.14;100632.16;5072844;28;45860;-61
2022/11/28 06:44:26;;;;;;;;;15.33;8.67;;;;;11.86;74.25;100631.31;5072213;28;45017;-61
2022/11/28 06:46:53;;;;;;;;;18.00;16.25;;;;;11.74;74.28;100616.81;5073182;28;45249;-62
2022/11/28 06:49:18;;;;;;;;;8.67;8.67;;;;;11.70;74.08;100609.63;5053010;28;45324;-61
2022/11/28 06:51:44;;;;;;;;;11.67;10.33;;;;;11.88;73.59;100648.28;5070606;28;45243;-60
2022/11/28 06:54:10;;;;;;;;;13.33;9.00;;;;;11.80;73.78;100634.78;5052360;28;45241;-62
2022/11/28 06:56:36;;;;;;;;;12.33;10.00;;;;;11.90;73.90;100654.59;5070232;28;45170;-61
2022/11/28 06:59:01;;;;;;;;;16.00;14.00;;;;;11.87;74.03;100652.75;5070806;28;44990;-60
2022/11/28 07:01:31;;;;;;;;;10.33;7.33;;;;;11.91;73.80;100646.66;5071847;28;45830;-62
2022/11/28 07:03:56;;;;;;;;;11.67;11.00;;;;;11.95;74.05;100643.13;5072031;28;45239;-62
2022/11/28 07:06:23;;;;;;;;;13.33;10.33;;;;;11.98;74.04;100647.66;5051521;28;45196;-60
2022/11/28 07:08:49;;;;;;;;;19.75;15.00;;;;;11.99;73.42;100657.47;5070882;28;45050;-60
2022/11/28 07:11:16;;;;;;;;;11.67;9.00;;;;;11.96;73.38;100657.41;5054172;28;46731;-61
2022/11/28 07:13:44;;;;;;;;;12.00;9.00;;;;;11.93;73.05;100652.03;5068679;28;45131;-60
2022/11/28 07:16:17;;;;;;;;;17.33;11.33;;;;;11.90;72.42;100660.84;5071330;28;45184;-62
2022/11/28 07:18:43;;;;;;;;;8.67;7.00;;;;;11.84;73.39;100652.69;5069014;28;45294;-62
2022/11/28 07:21:09;;;;;;;;;10.33;7.67;;;;;11.72;72.46;100641.75;5071121;28;45647;-64
2022/11/28 07:23:34;;;;;;;;;12.67;7.33;;;;;11.66;73.14;100639.84;5060790;28;45675;-61
2022/11/28 07:26:01;;;;;;;;;16.25;14.00;;;;;11.73;73.27;100647.16;5062739;28;45554;-61
2022/11/28 07:28:28;;;;;;;;;9.00;7.67;;;;;11.79;72.75;100662.41;5051825;28;45181;-61
2022/11/28 07:30:59;;;;;;;;;11.67;9.00;;;;;11.67;73.11;100641.66;5048130;28;46372;-60
2022/11/28 07:33:24;;;;;;;;;8.33;6.33;;;;;11.78;73.25;100649.91;5047827;28;44896;-61
2022/11/28 07:35:50;;;;;;;;;15.67;14.33;;;;;11.82;72.84;100642.84;5048939;28;45467;-61
2022/11/28 07:38:15;;;;;;;;;14.33;10.67;;;;;11.71;73.63;100635.47;5047129;28;45556;-63
2022/11/28 07:40:40;;;;;;;;;14.00;11.33;;;;;11.78;72.42;100657.94;5044915;28;46148;-61
2022/11/28 07:43:06;;;;;;;;;17.00;12.00;;;;;11.68;72.03;100646.16;5048620;28;45129;-65
2022/11/28 07:45:31;;;;;;;;;13.67;7.33;;;;;11.68;72.27;100654.19;5047029;28;45089;-63
2022/11/28 07:47:57;;;;;;;;;11.33;9.67;;;;;11.77;72.76;100669.50;5033080;28;45425;-62
2022/11/28 07:50:22;;;;;;;;;13.25;11.25;;;;;11.68;72.70;100650.59;5029355;28;53929;-62
2022/11/28 07:52:50;;;;;;;;;12.33;9.00;;;;;11.83;72.84;100674.06;5030446;28;46180;-62
2022/11/28 07:55:15;;;;;;;;;14.00;9.00;;;;;11.82;72.61;100667.81;5030511;28;45701;-62
2022/11/28 07:57:40;;;;;;;;;9.67;9.00;;;;;11.69;72.69;100650.63;5033040;28;45445;-62
2022/11/28 08:00:06;;;;;;;;;11.33;10.67;;;;;11.74;72.38;100673.00;5032204;28;45523;-62
2022/11/28 08:02:32;;;;;;;;;12.00;6.67;;;;;11.75;71.69;100676.63;5031087;28;45359;-63
2022/11/28 08:04:58;;;;;;;;;4.00;3.67;;;;;11.61;71.75;100649.56;5032660;28;45349;-65
2022/11/28 08:07:24;;;;;;;;;16.67;12.00;;;;;11.78;72.33;100672.22;5031783;28;45552;-61
2022/11/28 08:09:49;;;;;;;;;10.00;10.00;;;;;11.70;72.77;100652.44;5032522;28;46503;-62
2022/11/28 08:12:15;;;;;;;;;8.67;7.00;;;;;11.80;71.54;100681.19;5032912;28;45481;-61
2022/11/28 08:14:40;;;;;;;;;14.00;10.25;;;;;11.79;71.78;100678.47;5033122;28;45428;-64
2022/11/28 08:17:05;;;;;;;;;13.67;7.67;;;;;11.89;71.54;100692.94;5033203;28;45464;-62
2022/11/28 08:19:31;;;;;;;;;10.67;7.67;;;;;11.88;71.23;100686.69;5032858;28;45368;-62
2022/11/28 08:21:56;;;;;;;;;13.33;9.67;;;;;11.91;71.66;100696.56;5032940;28;45459;-62
2022/11/28 08:24:22;;;;;;;;;9.67;7.00;;;;;11.88;71.91;100699.16;5033002;28;45363;-62
2022/11/28 08:26:47;;;;;;;;;11.33;8.00;;;;;11.79;71.22;100678.47;5033196;28;45442;-63
2022/11/28 08:29:12;;;;;;;;;7.67;7.67;;;;;11.88;71.74;100693.81;5035006;28;45975;-65
2022/11/28 08:31:38;;;;;;;;;13.00;8.67;;;;;11.79;71.56;100681.16;5054921;28;45651;-65
2022/11/28 08:34:07;;;;;;;;;8.00;6.33;;;;;11.91;71.99;100704.56;5056701;28;45355;-63
2022/11/28 08:36:32;;;;;;;;;12.00;7.33;;;;;11.90;71.58;100695.66;5039391;28;45600;-65
2022/11/28 08:38:59;;;;;;;;;11.33;6.00;;;;;11.74;70.63;100670.34;5056441;28;46345;-64
2022/11/28 08:41:25;;;;;;;;;9.00;7.00;;;;;11.87;71.13;100687.56;5056854;28;45452;-64
2022/11/28 08:43:50;;;;;;;;;5.67;5.33;;;;;11.92;71.17;100696.63;5057008;28;45499;-65
2022/11/28 08:46:20;;;;;;;;;7.33;6.00;;;;;11.92;70.90;100695.72;5057118;28;45490;-63
2022/11/28 08:48:48;;;;;;;;;9.67;7.00;;;;;11.95;71.36;100690.44;5056379;28;46709;-63
2022/11/28 08:51:16;;;;;;;;;9.00;8.00;;;;;11.87;70.54;100668.81;5056779;28;45632;-62
2022/11/28 08:53:43;;;;;;;;;10.00;8.33;;;;;12.00;71.16;100687.84;5056945;28;45397;-65
2022/11/28 08:56:08;;;;;;;;;7.33;5.33;;;;;11.99;71.03;100681.56;5057274;28;45573;-65
2022/11/28 08:58:34;;;;;;;;;13.67;6.67;;;;;12.06;70.99;100687.94;5056255;28;46087;-62
2022/11/28 09:01:00;;;;;;;;;8.33;6.00;;;;;12.07;70.19;100687.09;5039372;28;45473;-64
2022/11/28 09:03:25;;;;;;;;;8.00;6.33;;;;;12.06;70.09;100679.91;5022209;28;45856;-64
2022/11/28 09:05:51;;;;;;;;;12.67;9.00;;;;;12.03;70.47;100679.84;5057575;28;45503;-64
2022/11/28 09:08:18;;;;;;;;;7.00;7.00;;;;;12.01;69.98;100679.84;5056663;28;45616;-65
2022/11/28 09:10:45;;;;;;;;;9.67;6.67;;;;;12.05;70.35;100676.34;5057026;28;45361;-63
2022/11/28 09:13:12;;;;;;;;;8.67;8.33;;;;;12.02;70.73;100670.94;5056974;28;45384;-62
2022/11/28 09:15:43;;;;;;;;;13.00;9.33;;;;;12.00;70.26;100672.69;5056348;28;45603;-61
2022/11/28 09:18:10;;;;;;;;;10.67;7.67;;;;;12.03;70.34;100678.09;5056463;28;46217;-61
2022/11/28 09:20:35;;;;;;;;;7.67;7.67;;;;;12.02;70.62;100681.63;5060400;28;45452;-62
2022/11/28 09:23:01;;;;;;;;;6.00;5.67;;;;;12.08;70.93;100686.22;5066580;28;45681;-64
2022/11/28 09:25:27;;;;;;;;;10.00;8.67;;;;;12.07;69.91;100689.75;5056031;28;45422;-65
2022/11/28 09:27:52;;;;;;;;;12.00;8.67;;;;;12.04;69.95;100684.34;5055841;28;45633;-65
2022/11/28 09:30:21;;;;;;;;;15.00;10.00;;;;;12.07;69.99;100706.72;5055528;28;45554;-66
2022/11/28 09:32:48;;;;;;;;;7.00;5.00;;;;;12.05;70.44;100708.47;5055959;28;45422;-65
2022/11/28 09:35:14;;;;;;;;;9.00;7.00;;;;;11.98;69.74;100694.06;5056454;28;45264;-66
2022/11/28 09:37:39;;;;;;;;;6.67;6.33;;;;;11.89;70.18;100687.59;5055654;28;46148;-66
2022/11/28 09:40:13;;;;;;;;;15.33;11.00;;;;;12.00;70.00;100709.28;5055769;28;45483;-67
2022/11/28 09:42:43;;;;;;;;;8.33;7.00;;;;;11.97;70.42;100702.97;5056137;28;45390;-64
2022/11/28 09:45:18;;;;;;;;;13.33;12.33;;;;;11.98;70.08;100703.88;5056176;28;45329;-66
2022/11/28 09:48:15;;;;;;;;;8.00;7.00;;;;;11.95;70.58;100691.31;5055841;28;46145;-65
2022/11/28 09:50:42;;;;;;;;;14.00;11.33;;;;;12.04;69.98;100713.81;5045048;28;45481;-64
2022/11/28 09:53:22;;;;;;;;;9.00;6.33;;;;;12.10;70.33;100708.56;5055480;28;45633;-64
2022/11/28 09:56:17;;;;;;;;;14.33;8.33;;;;;12.11;69.61;100719.31;5055723;28;45361;-64
2022/11/28 09:58:57;;;;;;;;;15.00;11.00;;;;;12.12;70.44;100710.38;5041981;28;46324;-65
2022/11/28 10:02:00;;;;;;;;;9.67;8.00;;;;;12.13;69.39;100700.59;5036987;28;44853;-64
2022/11/28 10:05:06;;;;;;;;;7.00;6.67;;;;;12.07;69.03;100689.75;5055298;28;45540;-65
2022/11/28 10:07:34;;;;;;;;;8.33;7.33;;;;;12.13;70.08;100703.28;5013580;28;45487;-64
2022/11/28 10:10:16;;;;;;;;;10.33;10.00;;;;;12.08;69.11;100694.25;5054762;28;45444;-66
2022/11/28 10:12:51;;;;;;;;;11.33;7.33;;;;;12.13;70.09;100703.28;5055017;28;45302;-65
2022/11/28 10:15:57;;;;;;;;;8.33;7.00;;;;;12.10;69.04;100705.91;5055338;28;45366;-67
2022/11/28 10:18:42;;;;;;;;;6.67;6.33;;;;;12.10;68.95;100704.13;5055203;28;45509;-64
2022/11/28 10:21:32;;;;;;;;;11.00;8.00;;;;;12.08;69.35;100710.31;5054843;28;46430;-66
2022/11/28 10:24:03;;;;;;;;;5.67;5.00;;;;;12.04;69.63;100698.63;5054657;28;45327;-64
2022/11/28 10:26:36;;;;;;;;;11.33;7.33;;;;;12.07;68.95;100711.19;5055592;28;45439;-63
2022/11/28 10:29:19;;;;;;;;;9.00;8.00;;;;;12.13;68.98;100714.00;5054978;28;45565;-64
2022/11/28 10:31:46;;;;;;;;;9.00;6.33;;;;;12.13;69.31;100712.22;5054777;28;46113;-64
2022/11/28 10:34:23;;;;;;;;;8.00;6.00;;;;;12.14;69.23;100705.06;5036959;28;45603;-65
2022/11/28 10:37:28;;;;;;;;;10.33;7.00;;;;;12.16;68.08;100698.00;5055273;28;45541;-61
2022/11/28 10:39:55;;;;;;;;;11.33;7.67;;;;;12.22;68.40;100711.47;5044065;28;45453;-66
2022/11/28 10:42:47;;;;;;;;;24.75;22.50;;;;;12.24;68.34;100704.41;5054297;28;45755;-64
2022/11/28 10:45:16;;;;;;;;;17.00;8.67;;;;;12.24;66.83;100693.69;5054140;28;45462;-65
2022/11/28 10:47:54;;;;;;;;;12.67;7.67;;;;;12.26;67.05;100694.59;5054494;28;45459;-65
2022/11/28 10:50:38;;;;;;;;;11.00;11.00;;;;;12.29;67.46;100697.34;5054109;28;45511;-63
2022/11/28 10:53:15;;;;;;;;;35.50;31.00;;;;;12.30;67.32;100691.09;5053844;28;46282;-69
2022/11/28 10:56:08;;;;;;;;;18.25;16.25;;;;;12.37;67.41;100692.09;5054156;28;45450;-64
2022/11/28 10:58:42;;;;;;;;;18.67;11.33;;;;;12.48;67.20;100697.66;5054204;28;45617;-67
2022/11/28 11:01:09;;;;;;;;;6.00;6.00;;;;;12.55;65.93;100702.25;5054980;28;45537;-71
2022/11/28 11:03:37;;;;;;;;;10.67;8.00;;;;;12.62;66.99;100705.94;5054005;28;46271;-66
2022/11/28 11:06:03;;;;;;;;;14.00;9.33;;;;;12.60;66.00;100687.16;5054066;28;45803;-65
2022/11/28 11:08:34;;;;;;;;;6.67;5.00;;;;;12.67;66.20;100697.13;5054786;28;45381;-67
2022/11/28 11:11:23;;;;;;;;;12.33;10.33;;;;;12.70;66.73;100698.94;5055093;28;45626;-67
2022/11/28 11:14:00;;;;;;;;;11.33;9.33;;;;;12.71;66.48;100696.28;5053948;28;45471;-62
2022/11/28 11:16:46;;;;;;;;;16.00;10.00;;;;;12.76;66.22;100700.81;5054896;28;45632;-62
2022/11/28 11:19:36;;;;;;;;;8.67;6.00;;;;;12.79;66.22;100706.25;5055021;28;45361;-63
2022/11/28 11:22:04;;;;;;;;;8.00;6.00;;;;;12.85;66.04;100709.00;5055332;28;45445;-60
2022/11/28 11:24:30;;;;;;;;;17.00;8.00;;;;;12.75;65.11;100694.53;5054330;28;46178;-66
2022/11/28 11:27:04;;;;;;;;;12.33;9.67;;;;;12.81;64.97;100693.75;5054450;28;45448;-66
2022/11/28 11:29:36;;;;;;;;;4.33;3.33;;;;;12.75;65.60;100686.50;5054324;28;45473;-67
2022/11/28 11:32:05;;;;;;;;;8.00;6.00;;;;;12.89;64.71;100702.84;5053971;28;45476;-64
2022/11/28 11:34:45;;;;;;;;;4.33;4.33;;;;;12.94;64.98;100698.44;5035458;28;47852;-64
2022/11/28 11:37:34;;;;;;;;;2.00;2.00;;;;;13.03;64.63;100695.00;5053749;28;45524;-61